Carbonear, Canada
Current Conditions -  °F | °C
As of 6:00 AM on Saturday 22 Nov 2014 (Local Time) from CYYT Reporting Station
Broken Clouds Broken Clouds  
Wind Chill: 11°   Ceiling: 3000
Heat Index: 27°   Visibility: 15mi
Dew Point: 16°   Wind: 25mph
Humidity: 64%   Direction: 290°WNW
Pressure: 29.52"   Gusts: NA
Location:  47.73°N, 53.25°W
Report Text: CYYT 220900Z 29022KT 15SM BKN030 M03/M09 A2952 RMK SC5 SLP001
Loading
Personal Weather Stations






























Interactive Weather Map New forecast layout! Learn more

10-Day Weather Forecast

Advertisements
Track Severe Weather on mobile